메인 페이지
METAR-TAF:

METAR-TAF

공항 :

Ponca City, 오클라호마, 미국

위도: 36-43-50N, 경도: 097-05-59W, 고도: 307m

현재 날씨관측

예보는 40분 전, 02:53시(UTC)에 발표되었습니다.
남남동9kt
온도 12°C
습도 50%
기압 1014 hPa
시정: 16.1km
맑음

METAR: KPNC 170253Z AUTO 16009KT 10SM CLR 12/02 A2995 RMK AO2 SLP141 T01220022 58007

시각: 21:33 (03:33 UTC)

예보

예보는 3 시간 59분 전, 23:34시(UTC)에 발표되었습니다.
예보 대상 시간: 17일 00시부터 17일 24시까지 (UTC)
8kt
시정: 10km
고도 25000ft 상공 구름 보통
17일 1500시부터 (UTC)
12kt
시정: 10km
고도 25000ft 상공 구름 많음
17일 1800시부터 (UTC)
12kt, 순간 최대 풍속 20kt
시정: 10km
고도 1500ft 상공 구름 많음

TAF: KPNC 162334Z 1700/1724 17008KT P6SM SCT250 FM171500 36012KT P6SM BKN250 FM171800 01012G20KT P6SM BKN015

4,000개 이상의 공항 관측 자료 및 예보 (METAR 및 TAF 보고).

지도상에서 검색 가능한 기상관측소가 노란 점과 빨간 점으로 표시되어 있습니다.

기상관측소 명을 보려면 표시 위로 마우스를 이동하세요.

날씨 관측과 예보를 보려면 클릭하세요.

지도 변경 : 확대하려면 엑스 표시가 있는 녹색 버튼, 축소하려면 빼기 표시가 있는 녹색 버튼, 다음 페이지의 지도를 보려면 녹색 화살표를 클릭하세요.


METAR-TAF: